Terminal Aerodrome Forecast
Issued by NWS Cleveland, OH

Home | Current Version | Previous Version | Graphics & Text | Print | Product List | Glossary On
Versions: 1 2 3 4 5 6 7 8 9 10 11 12 13 14 15 16 17 18 19
082
FTUS41 KCLE 161213 AAA
TAFMFD
TAF AMD
KMFD 161213Z 1612/1712 35010KT P6SM SCT004 OVC010
      TEMPO 1612/1614 5SM BR OVC004
     FM161400 33011KT P6SM OVC015
     FM161900 33012KT P6SM BKN025
     FM170200 32004KT P6SM SCT035
     FM170600 00000KT P6SM SCT200=

USA.gov is the U.S. government's official web portal to all federal, state and local government web resources and services.